createdAt,value
2018-08-11T00:01:37.180Z,100757.66
2018-08-11T00:04:06.524Z,100762.23
2018-08-11T00:06:35.354Z,100763.24
2018-08-11T00:09:04.816Z,100761.30
2018-08-11T00:11:33.932Z,100762.04
2018-08-11T00:17:02.284Z,100767.81
2018-08-11T00:19:31.167Z,100761.55
2018-08-11T00:22:00.044Z,100757.12
2018-08-11T00:24:28.915Z,100765.73
2018-08-11T00:26:58.492Z,100765.44
2018-08-11T00:29:28.051Z,100762.96
2018-08-11T00:31:56.868Z,100762.96
2018-08-11T00:34:25.740Z,100764.53
2018-08-11T00:37:25.307Z,100773.16
2018-08-11T00:39:54.617Z,100771.73
2018-08-11T00:42:23.536Z,100774.67
2018-08-11T00:44:52.363Z,100771.08
2018-08-11T00:47:21.510Z,100771.00
2018-08-11T00:49:51.068Z,100773.62
2018-08-11T00:52:20.700Z,100777.36
2018-08-11T00:54:49.513Z,100780.23
2018-08-11T00:57:18.991Z,100771.42
2018-08-11T00:59:49.303Z,100778.91
2018-08-11T01:02:18.889Z,100773.13
2018-08-11T01:04:48.473Z,100774.70
2018-08-11T01:07:17.619Z,100764.39
2018-08-11T01:09:47.034Z,100768.35
2018-08-11T01:12:16.527Z,100759.58
2018-08-11T01:14:46.063Z,100772.76
2018-08-11T01:17:15.661Z,100768.63
2018-08-11T01:19:44.601Z,100777.77
2018-08-11T01:22:13.393Z,100771.80
2018-08-11T01:24:42.192Z,100767.67
2018-08-11T01:27:11.649Z,100767.89
2018-08-11T01:29:40.907Z,100759.72
2018-08-11T01:32:09.754Z,100765.33
2018-08-11T01:34:38.503Z,100761.45
2018-08-11T01:37:07.357Z,100768.11
2018-08-11T01:39:36.867Z,100770.50
2018-08-11T01:42:05.650Z,100765.11
2018-08-11T01:44:34.539Z,100770.94
2018-08-11T01:47:03.449Z,100767.64
2018-08-11T01:49:32.815Z,100774.59
2018-08-11T01:52:02.339Z,100775.06
2018-08-11T01:54:31.151Z,100770.41
2018-08-11T01:57:00.736Z,100768.98
2018-08-11T01:59:29.501Z,100766.28
2018-08-11T02:01:59.227Z,100760.59
2018-08-11T02:04:28.567Z,100767.23
2018-08-11T02:06:57.392Z,100767.16
2018-08-11T02:09:26.467Z,100759.29
2018-08-11T02:11:55.264Z,100762.23
2018-08-11T02:14:24.015Z,100763.27
2018-08-11T02:16:52.939Z,100756.75
2018-08-11T02:19:22.167Z,100756.45
2018-08-11T02:21:51.034Z,100756.67
2018-08-11T02:24:20.747Z,100755.02
2018-08-11T02:26:50.236Z,100762.49
2018-08-11T02:29:18.994Z,100763.23
2018-08-11T02:31:48.923Z,100759.71
2018-08-11T02:34:17.993Z,100757.23
2018-08-11T02:36:47.095Z,100757.78
2018-08-11T02:39:16.300Z,100755.09
2018-08-11T02:41:46.108Z,100750.44
2018-08-11T02:44:15.130Z,100745.66
2018-08-11T02:46:43.935Z,100752.40
2018-08-11T02:49:13.690Z,100752.40
2018-08-11T02:51:42.840Z,100745.58
2018-08-11T02:54:11.574Z,100747.14
2018-08-11T02:56:41.116Z,100742.48
2018-08-11T02:59:10.054Z,100746.75
2018-08-11T03:01:38.866Z,100753.17
2018-08-11T03:04:08.147Z,100748.83
2018-08-11T03:06:36.893Z,100753.39
2018-08-11T03:09:08.336Z,100759.70
2018-08-11T03:11:37.136Z,100761.87
2018-08-11T03:14:06.083Z,100765.69
2018-08-11T03:16:34.872Z,100767.86
2018-08-11T03:19:04.253Z,100765.26
2018-08-11T03:21:33.003Z,100762.56
2018-08-11T03:24:01.823Z,100765.31
2018-08-11T03:26:31.236Z,100771.18
2018-08-11T03:29:00.768Z,100768.07
2018-08-11T03:31:30.112Z,100774.27
2018-08-11T03:33:58.904Z,100768.73
2018-08-11T03:36:27.643Z,100762.44
2018-08-11T03:38:56.432Z,100769.59
2018-08-11T03:41:25.199Z,100775.59
2018-08-11T03:43:54.488Z,100779.51
2018-08-11T03:46:23.246Z,100782.34
2018-08-11T03:48:52.699Z,100785.59
2018-08-11T03:51:22.175Z,100784.59
2018-08-11T03:53:51.003Z,100775.17
2018-08-11T03:56:20.148Z,100783.03
2018-08-11T03:58:49.512Z,100773.86
2018-08-11T04:01:18.470Z,100775.80
2018-08-11T04:03:48.480Z,100771.06
2018-08-11T04:06:18.196Z,100771.09
2018-08-11T04:08:47.167Z,100776.06
2018-08-11T04:11:16.784Z,100774.42
2018-08-11T04:13:45.891Z,100782.78
2018-08-11T04:16:15.947Z,100787.94
2018-08-11T04:18:45.564Z,100784.47
2018-08-11T04:21:15.793Z,100786.52
2018-08-11T04:23:46.143Z,100787.99
2018-08-11T04:26:15.855Z,100788.68
2018-08-11T04:28:46.096Z,100791.91
2018-08-11T04:31:15.720Z,100793.86
2018-08-11T04:33:44.549Z,100798.28
2018-08-11T04:36:13.517Z,100798.34
2018-08-11T04:38:42.308Z,100800.03
2018-08-11T04:41:11.133Z,100797.69
2018-08-11T04:43:40.398Z,100798.28
2018-08-11T04:46:09.263Z,100802.11
2018-08-11T04:48:38.652Z,100806.00
2018-08-11T04:51:08.096Z,100814.97
2018-08-11T04:53:36.863Z,100812.70
2018-08-11T04:56:06.400Z,100817.94
2018-08-11T04:58:35.688Z,100810.69
2018-08-11T05:01:04.460Z,100819.00
2018-08-11T05:03:33.893Z,100814.41
2018-08-11T05:06:02.857Z,100816.68
2018-08-11T05:08:31.622Z,100816.87
2018-08-11T05:11:00.466Z,100821.91
2018-08-11T05:13:29.371Z,100818.27
2018-08-11T05:15:58.331Z,100820.74
2018-08-11T05:18:27.140Z,100814.06
2018-08-11T05:20:56.580Z,100811.81
2018-08-11T05:23:25.756Z,100810.31
2018-08-11T05:25:55.289Z,100810.52
2018-08-11T05:28:24.728Z,100803.97
2018-08-11T05:30:54.246Z,100805.52
2018-08-11T05:33:23.036Z,100801.59
2018-08-11T05:35:51.883Z,100801.99
2018-08-11T05:38:20.721Z,100791.80
2018-08-11T05:40:49.490Z,100796.17
2018-08-11T05:43:19.068Z,100795.75
2018-08-11T05:45:48.097Z,100792.03
2018-08-11T05:48:18.296Z,100790.22
2018-08-11T05:50:47.986Z,100788.19
2018-08-11T05:53:17.925Z,100787.44
2018-08-11T05:55:47.967Z,100781.77
2018-08-11T05:58:17.980Z,100774.06
2018-08-11T06:00:47.874Z,100774.47
2018-08-11T06:03:18.329Z,100769.72
2018-08-11T06:05:47.925Z,100772.67
2018-08-11T06:08:17.021Z,100777.28
2018-08-11T06:10:46.715Z,100774.88
2018-08-11T06:13:15.747Z,100776.61
2018-08-11T06:15:45.473Z,100776.19
2018-08-11T06:18:14.625Z,100775.50
2018-08-11T06:20:44.048Z,100768.61
2018-08-11T06:23:12.840Z,100778.20
2018-08-11T06:25:42.363Z,100759.73
2018-08-11T06:28:11.710Z,100770.02
2018-08-11T06:30:41.124Z,100771.81
2018-08-11T06:33:09.891Z,100776.08
2018-08-11T06:35:38.713Z,100782.77
2018-08-11T06:38:07.591Z,100778.02
2018-08-11T06:40:36.447Z,100786.58
2018-08-11T06:43:05.767Z,100776.65
2018-08-11T06:45:34.575Z,100775.72
2018-08-11T06:48:04.046Z,100779.95
2018-08-11T06:50:33.348Z,100779.78
2018-08-11T06:53:02.176Z,100774.43
2018-08-11T06:55:31.598Z,100775.21
2018-08-11T06:58:00.804Z,100769.01
2018-08-11T07:00:29.582Z,100772.83
2018-08-11T07:02:58.790Z,100771.23
2018-08-11T07:05:27.560Z,100770.73
2018-08-11T07:07:56.296Z,100767.55
2018-08-11T07:10:25.085Z,100775.42
2018-08-11T07:12:53.888Z,100778.56
2018-08-11T07:15:22.802Z,100781.72
2018-08-11T07:17:51.574Z,100775.60
2018-08-11T07:20:21.287Z,100778.73
2018-08-11T07:22:50.102Z,100777.81
2018-08-11T07:25:19.532Z,100780.38
2018-08-11T07:27:49.140Z,100782.64
2018-08-11T07:30:18.695Z,100776.45
2018-08-11T07:32:48.311Z,100779.55
2018-08-11T07:35:17.291Z,100771.92
2018-08-11T07:37:46.371Z,100766.66
2018-08-11T07:40:15.629Z,100761.73
2018-08-11T07:42:45.442Z,100765.12
2018-08-11T07:45:14.218Z,100758.15
2018-08-11T07:47:43.676Z,100772.67
2018-08-11T07:50:13.226Z,100757.16
2018-08-11T07:52:42.032Z,100756.63
2018-08-11T07:55:10.809Z,100765.45
2018-08-11T07:57:40.256Z,100761.73
2018-08-11T08:00:10.802Z,100763.41
2018-08-11T08:02:40.517Z,100771.09
2018-08-11T08:05:09.697Z,100764.26
2018-08-11T08:07:38.421Z,100757.97
2018-08-11T08:10:07.755Z,100758.51
2018-08-11T08:12:36.519Z,100752.52
2018-08-11T08:15:06.047Z,100758.53
2018-08-11T08:17:34.896Z,100761.89
2018-08-11T08:20:04.507Z,100755.12
2018-08-11T08:22:33.338Z,100760.57
2018-08-11T08:25:02.836Z,100755.65
2018-08-11T08:27:32.171Z,100758.67
2018-08-11T08:30:00.917Z,100751.41
2018-08-11T08:32:30.246Z,100750.89
2018-08-11T08:34:59.005Z,100749.27
2018-08-11T08:37:27.724Z,100752.03
2018-08-11T08:39:56.487Z,100757.48
2018-08-11T08:42:25.801Z,100754.17
2018-08-11T08:44:54.575Z,100754.92
2018-08-11T08:47:23.814Z,100750.77
2018-08-11T08:49:53.002Z,100746.38
2018-08-11T08:52:21.723Z,100750.09
2018-08-11T08:54:50.762Z,100738.24
2018-08-11T08:57:20.072Z,100742.23
2018-08-11T08:59:49.013Z,100740.48
2018-08-11T09:02:18.703Z,100744.53
2018-08-11T09:04:49.365Z,100738.54
2018-08-11T09:07:18.407Z,100739.11
2018-08-11T09:09:47.628Z,100730.08
2018-08-11T09:12:16.725Z,100733.09
2018-08-11T09:14:46.345Z,100728.73
2018-08-11T09:17:15.440Z,100727.72
2018-08-11T09:19:45.443Z,100721.28
2018-08-11T09:22:14.366Z,100725.22
2018-08-11T09:24:43.313Z,100721.17
2018-08-11T09:27:12.739Z,100718.59
2018-08-11T09:29:41.578Z,100713.78
2018-08-11T09:32:11.072Z,100721.83
2018-08-11T09:34:39.876Z,100715.80
2018-08-11T09:37:08.644Z,100708.97
2018-08-11T09:39:37.444Z,100716.69
2018-08-11T09:42:06.907Z,100708.33
2018-08-11T09:44:35.713Z,100706.69
2018-08-11T09:47:04.576Z,100698.77
2018-08-11T09:49:34.342Z,100696.55
2018-08-11T09:52:03.696Z,100688.05
2018-08-11T09:54:32.433Z,100690.49
2018-08-11T09:57:01.679Z,100685.16
2018-08-11T09:59:30.424Z,100686.30
2018-08-11T10:02:04.780Z,100686.08
2018-08-11T10:04:34.876Z,100681.25
2018-08-11T10:07:03.764Z,100685.00
2018-08-11T10:09:32.563Z,100670.56
2018-08-11T10:12:01.323Z,100670.08
2018-08-11T10:14:30.112Z,100660.78
2018-08-11T10:16:58.999Z,100657.17
2018-08-11T10:19:28.476Z,100652.52
2018-08-11T10:21:57.227Z,100648.25
2018-08-11T10:24:26.010Z,100643.73
2018-08-11T10:26:55.531Z,100643.02
2018-08-11T10:29:24.257Z,100634.94
2018-08-11T10:31:53.817Z,100633.45
2018-08-11T10:34:22.566Z,100636.32
2018-08-11T10:36:51.323Z,100629.63
2018-08-11T10:39:20.089Z,100624.06
2018-08-11T10:41:49.866Z,100617.92
2018-08-11T10:44:18.785Z,100606.19
2018-08-11T10:46:47.948Z,100602.64
2018-08-11T10:49:17.608Z,100601.56
2018-08-11T10:51:49.759Z,100597.13
2018-08-11T10:54:18.623Z,100589.16
2018-08-11T10:56:48.268Z,100587.79
2018-08-11T10:59:17.338Z,100584.33
2018-08-11T11:01:46.418Z,100580.92
2018-08-11T11:04:15.996Z,100578.59
2018-08-11T11:06:44.960Z,100569.80
2018-08-11T11:09:13.759Z,100569.19
2018-08-11T11:11:42.565Z,100570.47
2018-08-11T11:14:11.385Z,100559.89
2018-08-11T11:16:40.213Z,100562.73
2018-08-11T11:19:09.783Z,100557.77
2018-08-11T11:21:38.568Z,100556.20
2018-08-11T11:24:07.371Z,100553.53
2018-08-11T11:26:36.847Z,100550.16
2018-08-11T11:29:06.251Z,100544.95
2018-08-11T11:31:35.947Z,100540.83
2018-08-11T11:34:05.085Z,100530.10
2018-08-11T11:36:33.852Z,100524.51
2018-08-11T11:39:02.764Z,100523.67
2018-08-11T11:41:32.171Z,100525.14
2018-08-11T11:44:01.096Z,100517.03
2018-08-11T11:46:29.839Z,100511.33
2018-08-11T11:48:59.024Z,100499.28
2018-08-11T11:51:28.332Z,100496.12
2018-08-11T11:53:57.510Z,100491.86
2018-08-11T11:56:26.672Z,100492.20
2018-08-11T11:58:55.850Z,100488.54
2018-08-11T12:01:24.664Z,100480.73
2018-08-11T12:03:54.073Z,100476.88
2018-08-11T12:06:22.837Z,100478.20
2018-08-11T12:08:51.628Z,100481.52
2018-08-11T12:11:20.496Z,100474.28
2018-08-11T12:13:49.268Z,100471.14
2018-08-11T12:16:18.254Z,100462.48
2018-08-11T12:18:47.591Z,100463.09
2018-08-11T12:21:17.202Z,100459.22
2018-08-11T12:23:46.186Z,100454.73
2018-08-11T12:26:15.892Z,100448.90
2018-08-11T12:28:45.573Z,100445.28
2018-08-11T12:31:15.283Z,100442.59
2018-08-11T12:33:44.002Z,100438.81
2018-08-11T12:36:13.011Z,100437.09
2018-08-11T12:38:41.823Z,100435.16
2018-08-11T12:41:10.668Z,100431.80
2018-08-11T12:43:40.100Z,100423.45
2018-08-11T12:46:09.745Z,100430.27
2018-08-11T12:48:39.087Z,100420.25
2018-08-11T12:51:08.797Z,100417.08
2018-08-11T12:53:38.072Z,100415.41
2018-08-11T12:56:08.830Z,100417.76
2018-08-11T12:58:38.046Z,100414.25
2018-08-11T13:01:06.912Z,100408.77
2018-08-11T13:03:36.395Z,100413.80
2018-08-11T13:06:05.366Z,100425.02
2018-08-11T13:08:34.072Z,100429.56
2018-08-11T13:11:03.031Z,100442.55
2018-08-11T13:13:31.768Z,100457.17
2018-08-11T13:16:00.609Z,100466.41
2018-08-11T13:18:29.388Z,100450.33
2018-08-11T13:20:58.697Z,100442.56
2018-08-11T13:23:27.414Z,100457.47
2018-08-11T13:25:56.950Z,100468.22
2018-08-11T13:28:26.428Z,100464.77
2018-08-11T13:30:56.023Z,100460.89
2018-08-11T13:33:24.868Z,100440.02
2018-08-11T13:35:53.636Z,100455.95
2018-08-11T13:38:22.480Z,100463.13
2018-08-11T13:40:51.299Z,100447.69
2018-08-11T13:43:21.017Z,100449.38
2018-08-11T13:45:49.813Z,100453.25
2018-08-11T13:48:19.495Z,100444.28
2018-08-11T13:50:49.081Z,100439.91
2018-08-11T13:53:18.881Z,100437.67
2018-08-11T13:55:49.087Z,100430.84
2018-08-11T13:58:20.222Z,100427.52
2018-08-11T14:00:49.015Z,100426.66
2018-08-11T14:03:19.140Z,100416.06
2018-08-11T14:05:48.231Z,100408.47
2018-08-11T14:08:18.184Z,100401.69
2018-08-11T14:10:47.721Z,100387.56
2018-08-11T14:13:17.528Z,100388.92
2018-08-11T14:15:46.642Z,100381.61
2018-08-11T14:18:15.946Z,100383.52
2018-08-11T14:20:46.033Z,100378.91
2018-08-11T14:23:15.186Z,100375.92
2018-08-11T14:25:46.889Z,100374.02
2018-08-11T14:28:16.732Z,100377.28
2018-08-11T14:30:46.202Z,100369.39
2018-08-11T14:33:15.160Z,100367.75
2018-08-11T14:35:43.941Z,100368.30
2018-08-11T14:38:12.751Z,100365.03
2018-08-11T14:40:41.558Z,100367.73
2018-08-11T14:43:11.147Z,100364.74
2018-08-11T14:45:39.999Z,100365.27
2018-08-11T14:48:09.563Z,100365.84
2018-08-11T14:50:39.484Z,100376.99
2018-08-11T14:53:08.915Z,100393.83
2018-08-11T14:55:38.388Z,100406.03
2018-08-11T14:58:07.877Z,100399.08
2018-08-11T15:00:37.066Z,100410.41
2018-08-11T15:03:06.519Z,100409.19
2018-08-11T15:05:35.641Z,100408.51
2018-08-11T15:08:04.424Z,100401.77
2018-08-11T15:10:33.195Z,100407.34
2018-08-11T15:13:01.988Z,100415.66
2018-08-11T15:15:30.877Z,100418.50
2018-08-11T15:17:59.708Z,100403.77
2018-08-11T15:20:28.469Z,100392.87
2018-08-11T15:22:57.211Z,100396.52
2018-08-11T15:25:26.842Z,100401.91
2018-08-11T15:27:56.431Z,100407.36
2018-08-11T15:30:25.240Z,100412.78
2018-08-11T15:32:54.566Z,100420.63
2018-08-11T15:35:23.304Z,100438.85
2018-08-11T15:37:52.062Z,100457.55
2018-08-11T15:40:20.858Z,100455.91
2018-08-11T15:42:50.519Z,100446.81
2018-08-11T15:45:20.268Z,100449.16
2018-08-11T15:47:49.523Z,100450.69
2018-08-11T15:50:18.854Z,100446.33
2018-08-11T15:52:48.457Z,100457.37
2018-08-11T15:55:18.111Z,100458.81
2018-08-11T15:57:48.473Z,100458.64
2018-08-11T16:00:19.175Z,100451.41
2018-08-11T16:02:48.940Z,100450.93
2018-08-11T16:05:18.561Z,100451.31
2018-08-11T16:07:48.507Z,100446.27
2018-08-11T16:10:17.783Z,100437.76
2018-08-11T16:12:47.027Z,100426.59
2018-08-11T16:15:16.259Z,100412.54
2018-08-11T16:17:45.780Z,100411.37
2018-08-11T16:20:14.687Z,100412.09
2018-08-11T16:22:43.492Z,100394.61
2018-08-11T16:25:12.886Z,100389.44
2018-08-11T16:27:43.064Z,100386.40
2018-08-11T16:30:13.090Z,100380.13
2018-08-11T16:32:42.447Z,100379.02
2018-08-11T16:35:11.219Z,100378.62
2018-08-11T16:37:40.024Z,100370.79
2018-08-11T16:40:09.225Z,100368.92
2018-08-11T16:42:38.502Z,100357.08
2018-08-11T16:45:07.456Z,100363.84
2018-08-11T16:47:36.821Z,100351.67
2018-08-11T16:50:06.337Z,100350.93
2018-08-11T16:52:35.824Z,100348.02
2018-08-11T16:55:05.383Z,100335.56
2018-08-11T16:57:35.102Z,100343.96
2018-08-11T17:00:04.000Z,100341.79
2018-08-11T17:02:33.792Z,100320.39
2018-08-11T17:05:02.507Z,100316.58
2018-08-11T17:07:31.234Z,100293.70
2018-08-11T17:10:00.018Z,100295.34
2018-08-11T17:12:29.494Z,100300.59
2018-08-11T17:14:58.215Z,100302.56
2018-08-11T17:17:26.967Z,100291.08
2018-08-11T17:19:55.733Z,100289.55
2018-08-11T17:22:24.651Z,100289.39
2018-08-11T17:24:53.551Z,100294.63
2018-08-11T17:27:22.892Z,100294.13
2018-08-11T17:29:51.639Z,100284.94
2018-08-11T17:32:20.911Z,100286.00
2018-08-11T17:34:49.699Z,100278.34
2018-08-11T17:37:19.040Z,100277.45
2018-08-11T17:39:48.159Z,100279.27
2018-08-11T17:42:18.590Z,100278.44
2018-08-11T17:44:47.785Z,100274.95
2018-08-11T17:47:17.313Z,100273.60
2018-08-11T17:49:47.319Z,100267.08
2018-08-11T17:52:17.473Z,100258.64
2018-08-11T17:54:46.438Z,100249.16
2018-08-11T17:57:16.388Z,100237.23
2018-08-11T17:59:45.461Z,100239.62
2018-08-11T18:02:15.185Z,100243.57
2018-08-11T18:04:43.947Z,100235.45
2018-08-11T18:07:12.732Z,100233.23
2018-08-11T18:09:41.494Z,100226.97
2018-08-11T18:12:10.511Z,100223.66
2018-08-11T18:14:39.371Z,100228.73
2018-08-11T18:17:09.052Z,100220.33
2018-08-11T18:19:37.922Z,100213.28
2018-08-11T18:22:06.899Z,100207.84
2018-08-11T18:24:35.730Z,100195.34
2018-08-11T18:27:05.416Z,100194.55
2018-08-11T18:29:34.187Z,100197.50
2018-08-11T18:32:03.583Z,100193.66
2018-08-11T18:34:32.416Z,100196.32
2018-08-11T18:37:01.179Z,100192.76
2018-08-11T18:39:29.968Z,100189.52
2018-08-11T18:41:59.489Z,100187.64
2018-08-11T18:44:28.262Z,100192.27
2018-08-11T18:46:57.559Z,100187.96
2018-08-11T18:49:26.981Z,100185.26
2018-08-11T18:51:56.439Z,100183.30
2018-08-11T18:54:25.431Z,100183.54
2018-08-11T18:56:54.843Z,100179.93
2018-08-11T18:59:23.591Z,100180.66
2018-08-11T19:01:52.858Z,100171.08
2018-08-11T19:04:21.959Z,100159.35
2018-08-11T19:06:50.823Z,100160.82
2018-08-11T19:09:21.390Z,100171.09
2018-08-11T19:11:50.263Z,100178.28
2018-08-11T19:14:19.263Z,100168.66
2018-08-11T19:16:48.355Z,100172.66
2018-08-11T19:19:17.478Z,100173.48
2018-08-11T19:21:46.412Z,100170.53
2018-08-11T19:24:16.096Z,100164.07
2018-08-11T19:26:46.215Z,100161.16
2018-08-11T19:29:16.468Z,100156.59
2018-08-11T19:31:45.891Z,100151.72
2018-08-11T19:34:14.690Z,100155.52
2018-08-11T19:36:43.548Z,100157.41
2018-08-11T19:39:13.094Z,100160.38
2018-08-11T19:41:42.756Z,100158.75
2018-08-11T19:44:11.701Z,100158.74
2018-08-11T19:46:41.065Z,100157.03
2018-08-11T19:49:10.445Z,100158.91
2018-08-11T19:51:39.766Z,100148.34
2018-08-11T19:54:09.398Z,100136.92
2018-08-11T19:56:38.831Z,100127.12
2018-08-11T19:59:08.013Z,100129.01
2018-08-11T20:01:36.828Z,100130.36
2018-08-11T20:04:06.220Z,100130.36
2018-08-11T20:06:35.001Z,100121.15
2018-08-11T20:09:03.939Z,100119.27
2018-08-11T20:11:32.736Z,100115.79
2018-08-11T20:14:01.528Z,100113.13
2018-08-11T20:16:30.383Z,100111.51
2018-08-11T20:18:59.166Z,100106.68
2018-08-11T20:21:28.670Z,100104.80
2018-08-11T20:23:57.471Z,100092.64
2018-08-11T20:26:27.028Z,100094.52
2018-08-11T20:28:57.125Z,100095.09
2018-08-11T20:31:26.498Z,100101.03
2018-08-11T20:33:55.274Z,100094.23
2018-08-11T20:36:24.052Z,100092.50
2018-08-11T20:38:52.803Z,100087.30
2018-08-11T20:41:23.163Z,100091.89
2018-08-11T20:43:52.488Z,100084.26
2018-08-11T20:46:22.080Z,100083.35
2018-08-11T20:48:51.434Z,100085.33
2018-08-11T20:51:20.728Z,100081.94
2018-08-11T20:53:49.979Z,100083.20
2018-08-11T20:56:20.209Z,100078.28
2018-08-11T20:58:49.470Z,100074.52
2018-08-11T21:01:18.689Z,100071.05
2018-08-11T21:03:48.305Z,100069.27
2018-08-11T21:06:17.843Z,100069.33
2018-08-11T21:08:46.889Z,100074.77
2018-08-11T21:11:16.127Z,100070.81
2018-08-11T21:13:44.980Z,100068.93
2018-08-11T21:16:13.948Z,100060.02
2018-08-11T21:18:42.792Z,100059.77
2018-08-11T21:21:11.563Z,100061.41
2018-08-11T21:23:40.873Z,100057.11
2018-08-11T21:26:10.432Z,100055.77
2018-08-11T21:28:40.504Z,100055.14
2018-08-11T21:31:09.867Z,100041.61
2018-08-11T21:33:38.690Z,100049.70
2018-08-11T21:36:07.504Z,100042.66
2018-08-11T21:38:36.335Z,100039.97
2018-08-11T21:41:05.175Z,100035.38
2018-08-11T21:43:34.343Z,100034.03
2018-08-11T21:46:03.155Z,100025.94
2018-08-11T21:48:32.621Z,100023.73
2018-08-11T21:51:02.087Z,100021.02
2018-08-11T21:53:31.438Z,100022.36
2018-08-11T21:56:00.738Z,100017.50
2018-08-11T21:58:30.113Z,100023.42
2018-08-11T22:01:06.288Z,100017.22
2018-08-11T22:03:36.041Z,100014.81
2018-08-11T22:06:04.848Z,100005.36
2018-08-11T22:08:33.754Z,100008.88
2018-08-11T22:11:02.554Z,100002.66
2018-08-11T22:13:31.559Z,99996.73
2018-08-11T22:16:00.693Z,99985.64
2018-08-11T22:18:29.478Z,99982.08
2018-08-11T22:20:58.283Z,99987.72
2018-08-11T22:23:27.080Z,99986.33
2018-08-11T22:25:56.490Z,99978.96
2018-08-11T22:28:26.410Z,99979.25
2018-08-11T22:30:55.874Z,99972.22
2018-08-11T22:33:24.674Z,99973.31
2018-08-11T22:35:53.537Z,99976.78
2018-08-11T22:38:22.620Z,99974.91
2018-08-11T22:40:51.797Z,99971.92
2018-08-11T22:43:21.655Z,99967.88
2018-08-11T22:45:50.498Z,99968.94
2018-08-11T22:48:20.007Z,99966.44
2018-08-11T22:50:49.484Z,99955.02
2018-08-11T22:53:19.478Z,99960.70
2018-08-11T22:55:48.909Z,99963.34
2018-08-11T22:58:18.558Z,99959.21
2018-08-11T23:00:47.833Z,99952.12
2018-08-11T23:03:17.694Z,99957.14
2018-08-11T23:05:46.955Z,99947.36
2018-08-11T23:08:15.864Z,99944.67
2018-08-11T23:10:45.058Z,99942.41
2018-08-11T23:13:13.923Z,99945.78
2018-08-11T23:15:42.916Z,99937.45
2018-08-11T23:18:11.767Z,99941.50
2018-08-11T23:20:40.591Z,99936.88
2018-08-11T23:23:09.328Z,99932.53
2018-08-11T23:25:39.310Z,99925.41
2018-08-11T23:28:08.759Z,99925.30
2018-08-11T23:30:38.483Z,99931.79
2018-08-11T23:33:07.398Z,99927.19
2018-08-11T23:35:36.196Z,99923.96
2018-08-11T23:38:05.145Z,99921.80
2018-08-11T23:40:33.925Z,99917.22
2018-08-11T23:43:03.751Z,99910.77
2018-08-11T23:45:32.610Z,99910.77
2018-08-11T23:48:02.202Z,99907.78
2018-08-11T23:50:32.985Z,99912.16
2018-08-11T23:53:02.383Z,99903.64
2018-08-11T23:55:31.954Z,99898.83
2018-08-11T23:58:01.285Z,99900.17
